KSBD/SBD METAR and TAF weather

Enter ICAO airport designator
Station Type Date Time Source
KSBD METAR 2022/01/19 19:51 UTC NOAA

KSBD 191951Z 00000KT 4SM HZ FEW025 16/07 A3016


Station Type Date Time Source
KSBD Decoded METAR 2022/01/19 19:51 UTC NOAA

Norton Air Force Base / San Bern, CA, United States (KSBD) 34-06N 117-14W
Jan 19, 2022 - 02:51 PM EST / 2022.01.19 1951 UTC
Wind: Calm:0
Visibility: 4 mile(s):0
Sky conditions: mostly clear
Weather: haze
Temperature: 60 F (16 C)
Dew Point: 44 F (7 C)
Relative Humidity: 55%
Pressure (altimeter): 30.16 in. Hg (1021 hPa)
ob: KSBD 191951Z 00000KT 4SM HZ FEW025 16/07 A3016
cycle: 20

Station Type Date Time Source
KSBD TAF 2022/01/19 18:38 UTC NOAA

TAF KSBD 191737Z 1918/2018 VRB04KT 4SM HZ SCT025
FM192100 26007KT 5SM HZ SKC
FM200500 01005KT P6SM SKC
FM201000 01012KT P6SM SKC

Example: see airport list